Time;durP1;ratioP1;P1;durP2;ratioP2;P2;SDS_P1;SDS_P2;PMS_P1;PMS_P2;Temp;Humidity;BMP_temperature;BMP_pressure;BME280_temperature;BME280_humidity;BME280_pressure;Samples;Min_cycle;Max_cycle;Signal;HPM_P1;HPM_P2
2021/05/09 00:00:49;;;;;;;9.45;5.47;;;;;;;3.07;100.00;99710.62;1765806;81;21552;-73
2021/05/09 00:03:17;;;;;;;8.10;5.37;;;;;;;3.04;100.00;99708.43;1765715;81;20950;-74
2021/05/09 00:05:45;;;;;;;11.08;5.42;;;;;;;3.02;100.00;99714.66;1785779;79;20926;-73
2021/05/09 00:08:13;;;;;;;11.35;4.85;;;;;;;3.00;100.00;99718.17;1802049;79;20934;-74
2021/05/09 00:10:42;;;;;;;12.33;5.85;;;;;;;2.97;100.00;99715.44;1802055;79;21009;-74
2021/05/09 00:13:10;;;;;;;12.78;6.08;;;;;;;2.95;100.00;99724.91;1802014;79;21284;-71
2021/05/09 00:15:38;;;;;;;11.78;5.50;;;;;;;2.90;100.00;99719.45;1801922;79;21025;-75
2021/05/09 00:18:06;;;;;;;13.70;5.67;;;;;;;2.88;100.00;99724.35;1801378;79;21001;-76
2021/05/09 00:20:33;;;;;;;11.05;5.53;;;;;;;2.84;100.00;99724.59;1801460;79;21492;-76
2021/05/09 00:23:01;;;;;;;9.78;5.60;;;;;;;2.82;100.00;99733.53;1801492;79;20997;-76
2021/05/09 00:25:29;;;;;;;9.18;5.22;;;;;;;2.79;100.00;99732.70;1801418;79;21213;-76
2021/05/09 00:27:57;;;;;;;8.53;4.65;;;;;;;2.77;100.00;99730.78;1801401;79;21911;-76
2021/05/09 00:30:24;;;;;;;8.10;4.75;;;;;;;2.73;100.00;99737.26;1801418;79;20895;-71
2021/05/09 00:32:52;;;;;;;7.95;4.95;;;;;;;2.71;100.00;99738.06;1801458;79;20990;-71
2021/05/09 00:35:22;;;;;;;8.35;5.05;;;;;;;2.68;100.00;99740.47;1801446;79;20997;-71
2021/05/09 00:37:49;;;;;;;9.30;5.33;;;;;;;2.65;100.00;99739.09;1801552;79;21536;-71
2021/05/09 00:40:17;;;;;;;9.55;5.08;;;;;;;2.64;100.00;99736.92;1801421;79;20949;-71
2021/05/09 00:42:45;;;;;;;8.13;4.85;;;;;;;2.62;100.00;99740.42;1801414;79;20938;-71
2021/05/09 00:45:13;;;;;;;11.43;5.62;;;;;;;2.63;100.00;99748.02;1801402;79;20942;-71
2021/05/09 00:47:41;;;;;;;9.78;5.35;;;;;;;2.61;100.00;99748.28;1801427;79;21009;-71
2021/05/09 00:50:10;;;;;;;8.55;4.58;;;;;;;2.61;100.00;99745.56;1801446;79;21267;-72
2021/05/09 00:52:39;;;;;;;9.73;5.17;;;;;;;2.60;100.00;99747.18;1774521;79;21615;-71
2021/05/09 00:55:10;;;;;;;8.45;5.70;;;;;;;2.59;100.00;99743.66;1750557;79;21484;-75
2021/05/09 00:57:37;;;;;;;8.88;4.85;;;;;;;2.59;100.00;99756.39;1801427;79;20998;-74
2021/05/09 01:00:08;;;;;;;10.88;5.00;;;;;;;2.57;100.00;99756.64;1801455;79;21073;-76
2021/05/09 01:02:35;;;;;;;10.95;5.15;;;;;;;2.56;100.00;99755.01;1801476;79;21199;-76
2021/05/09 01:05:06;;;;;;;7.45;5.05;;;;;;;2.55;100.00;99759.33;1795984;79;21198;-76
2021/05/09 01:07:33;;;;;;;6.97;4.33;;;;;;;2.53;100.00;99764.19;1765243;81;20935;-74
2021/05/09 01:10:09;;;;;;;10.70;5.33;;;;;;;2.51;100.00;99764.98;1765158;81;21478;-73
2021/05/09 01:12:37;;;;;;;10.80;5.37;;;;;;;2.52;100.00;99765.27;1765244;81;20925;-74
2021/05/09 01:15:06;;;;;;;9.58;5.47;;;;;;;2.50;100.00;99769.59;1765224;81;21482;-77
2021/05/09 01:17:35;;;;;;;9.20;5.22;;;;;;;2.49;100.00;99765.25;1765144;80;20951;-74
2021/05/09 01:20:20;;;;;;;10.60;5.58;;;;;;;2.47;100.00;99771.45;1765283;81;21481;-75
2021/05/09 01:22:48;;;;;;;8.93;5.25;;;;;;;2.45;100.00;99770.08;1765197;81;20944;-76
2021/05/09 01:25:17;;;;;;;11.57;5.00;;;;;;;2.41;100.00;99775.73;1765175;81;20950;-75
2021/05/09 01:27:45;;;;;;;8.73;5.20;;;;;;;2.34;100.00;99774.58;1779797;79;21670;-72
2021/05/09 01:30:13;;;;;;;8.48;4.83;;;;;;;2.30;100.00;99774.30;1803441;79;21010;-72
2021/05/09 01:32:41;;;;;;;9.00;4.87;;;;;;;2.28;100.00;99780.52;1808868;79;20985;-71
2021/05/09 01:35:11;;;;;;;7.65;5.12;;;;;;;2.25;100.00;99781.02;1816178;79;21592;-71
2021/05/09 01:37:39;;;;;;;9.85;5.42;;;;;;;2.25;100.00;99778.86;1816342;79;21553;-72
2021/05/09 01:40:10;;;;;;;10.43;5.80;;;;;;;2.23;100.00;99778.30;1806533;79;21199;-73
2021/05/09 01:42:40;;;;;;;11.05;5.42;;;;;;;2.22;100.00;99790.20;1822317;78;21045;-68
2021/05/09 01:45:09;;;;;;;11.70;4.97;;;;;;;2.19;100.00;99786.64;1822278;78;21034;-69
2021/05/09 01:47:37;;;;;;;8.20;4.62;;;;;;;2.17;100.00;99783.38;1806567;79;21564;-73
2021/05/09 01:50:13;;;;;;;10.48;5.22;;;;;;;2.16;100.00;99788.51;1806565;79;21481;-72
2021/05/09 01:52:42;;;;;;;6.45;4.45;;;;;;;2.16;100.00;99789.86;1822365;78;22280;-72
2021/05/09 01:55:13;;;;;;;8.50;4.90;;;;;;;2.17;100.00;99790.97;1822173;78;20990;-72
2021/05/09 01:57:42;;;;;;;;;;;;;;;2.16;100.00;99796.09;1809202;79;20978;-71
2021/05/09 02:00:16;;;;;;;7.75;5.10;;;;;;;2.16;100.00;99789.86;1804872;79;20487;-72
2021/05/09 02:02:48;;;;;;;11.60;4.95;;;;;;;2.15;100.00;99800.41;1806105;79;21619;-71
2021/05/09 02:05:18;;;;;;;10.13;5.03;;;;;;;2.13;100.00;99799.84;1806635;79;21254;-73
2021/05/09 02:07:47;;;;;;;8.75;4.28;;;;;;;2.11;100.00;99800.64;1809676;79;21509;-72
2021/05/09 02:10:17;;;;;;;10.90;4.67;;;;;;;2.07;100.00;99803.04;1809592;79;20919;-72
2021/05/09 02:12:45;;;;;;;9.10;5.03;;;;;;;2.05;100.00;99806.53;1842680;77;20979;-72
2021/05/09 02:15:24;;;;;;;8.25;5.08;;;;;;;2.04;100.00;99813.55;1808575;79;21489;-72
2021/05/09 02:17:53;;;;;;;7.75;4.42;;;;;;;2.01;100.00;99820.30;1809556;78;21434;-72
2021/05/09 02:20:23;;;;;;;9.63;4.17;;;;;;;2.00;100.00;99826.78;1809567;79;20951;-68
2021/05/09 02:22:51;;;;;;;6.40;4.12;;;;;;;1.98;100.00;99832.98;1824304;77;20960;-68
2021/05/09 02:25:19;;;;;;;5.95;4.30;;;;;;;1.96;100.00;99834.59;1789807;80;21089;-68
2021/05/09 02:27:48;;;;;;;12.10;4.45;;;;;;;1.94;100.00;99836.73;1789925;80;20918;-76
2021/05/09 02:30:18;;;;;;;6.10;3.95;;;;;;;1.92;100.00;99844.29;1789888;80;21395;-77
2021/05/09 02:32:46;;;;;;;8.13;4.55;;;;;;;1.93;100.00;99854.05;1789822;80;20958;-73
2021/05/09 02:35:13;;;;;;;7.67;4.70;;;;;;;1.94;100.00;99850.80;1761537;80;20899;-73
2021/05/09 02:37:41;;;;;;;7.20;4.28;;;;;;;1.96;100.00;99848.13;1789938;80;21069;-77
2021/05/09 02:40:12;;;;;;;7.78;4.67;;;;;;;1.97;100.00;99857.89;1789879;80;21001;-77
2021/05/09 02:42:40;;;;;;;7.45;4.20;;;;;;;1.99;100.00;99858.99;1789777;80;21212;-75
2021/05/09 02:45:09;;;;;;;6.22;3.85;;;;;;;2.01;100.00;99860.09;1789782;80;20938;-76
2021/05/09 02:47:37;;;;;;;7.15;4.28;;;;;;;2.04;100.00;99869.89;1789875;80;20891;-76
2021/05/09 02:50:09;;;;;;;8.20;4.33;;;;;;;2.05;100.00;99876.12;1789601;80;20970;-75
2021/05/09 02:52:38;;;;;;;5.57;3.53;;;;;;;2.09;100.00;99882.67;1761216;80;21399;-75
2021/05/09 02:55:07;;;;;;;6.92;3.98;;;;;;;2.09;100.00;99882.67;1789876;80;21394;-73
2021/05/09 02:57:36;;;;;;;6.45;4.22;;;;;;;2.11;100.00;99888.66;1760931;80;20954;-73
2021/05/09 03:00:06;;;;;;;7.78;4.10;;;;;;;2.13;100.00;99886.52;1789926;80;21441;-73
2021/05/09 03:02:34;;;;;;;7.05;4.20;;;;;;;2.15;100.00;99898.73;1789831;80;20930;-73
2021/05/09 03:05:05;;;;;;;6.80;3.98;;;;;;;2.18;100.00;99901.48;1789835;80;20927;-73
2021/05/09 03:07:33;;;;;;;5.28;3.70;;;;;;;2.22;100.00;99908.03;1797264;79;22271;-73
2021/05/09 03:10:02;;;;;;;8.48;3.80;;;;;;;2.24;100.00;99915.37;1798240;79;20985;-73
2021/05/09 03:12:30;;;;;;;5.30;3.77;;;;;;;2.29;100.00;99916.79;1798253;79;21008;-74
2021/05/09 03:15:00;;;;;;;5.83;3.85;;;;;;;2.32;100.00;99923.02;1798189;79;21147;-74
2021/05/09 03:17:28;;;;;;;5.92;3.87;;;;;;;2.36;100.00;99923.34;1798207;79;20930;-74
2021/05/09 03:19:56;;;;;;;6.65;4.33;;;;;;;2.38;100.00;99924.73;1798219;79;22624;-74
2021/05/09 03:22:24;;;;;;;6.00;3.37;;;;;;;2.42;100.00;99927.75;1769136;79;20969;-74
2021/05/09 03:24:52;;;;;;;6.20;3.50;;;;;;;2.46;100.00;99920.75;1798220;79;21112;-74
2021/05/09 03:27:20;;;;;;;6.15;3.60;;;;;;;2.50;100.00;99925.41;1798172;79;21124;-79
2021/05/09 03:29:48;;;;;;;5.15;3.47;;;;;;;2.55;100.00;99927.36;1798251;79;21152;-81
2021/05/09 03:32:16;;;;;;;7.95;3.47;;;;;;;2.60;100.00;99934.20;1769261;79;21646;-80
2021/05/09 03:34:45;;;;;;;5.67;3.72;;;;;;;2.63;100.00;99928.27;1798277;79;21093;-81
2021/05/09 03:37:12;;;;;;;5.75;3.75;;;;;;;2.69;100.00;99934.56;1798225;79;21013;-82
2021/05/09 03:39:41;;;;;;;6.28;3.60;;;;;;;2.72;100.00;99928.10;1798200;79;21987;-82
2021/05/09 03:42:10;;;;;;;5.70;3.90;;;;;;;2.79;100.00;99933.33;1798263;79;21151;-82
2021/05/09 03:44:37;;;;;;;5.20;3.58;;;;;;;2.85;100.00;99937.19;1798138;79;21205;-83
2021/05/09 03:47:06;;;;;;;7.17;3.12;;;;;;;2.91;100.00;99936.67;1798337;79;20950;-84
2021/05/09 03:49:35;;;;;;;5.40;3.45;;;;;;;2.97;100.00;99939.19;1798285;79;21492;-83
2021/05/09 03:52:04;;;;;;;8.68;3.58;;;;;;;3.05;100.00;99946.04;1798342;79;21152;-83
2021/05/09 03:54:32;;;;;;;12.88;3.72;;;;;;;3.12;100.00;99952.08;1798425;79;20997;-83
2021/05/09 03:57:00;;;;;;;5.17;3.58;;;;;;;3.17;100.00;99948.05;1798461;79;21387;-74
2021/05/09 03:59:28;;;;;;;6.15;3.40;;;;;;;3.24;100.00;99947.31;1798335;79;20934;-74
2021/05/09 04:01:56;;;;;;;3.90;3.10;;;;;;;3.32;100.00;99955.52;1798362;79;20930;-74
2021/05/09 04:04:23;;;;;;;4.87;3.15;;;;;;;3.39;100.00;99959.38;1798336;79;21919;-76
2021/05/09 04:06:52;;;;;;;4.50;3.22;;;;;;;3.46;100.00;99958.08;1798183;79;21108;-80
2021/05/09 04:09:20;;;;;;;4.08;3.00;;;;;;;3.53;100.00;99961.91;1798391;79;21211;-80
2021/05/09 04:11:48;;;;;;;5.97;3.10;;;;;;;3.58;100.00;99957.34;1798321;79;21088;-78
2021/05/09 04:14:16;;;;;;;6.72;2.95;;;;;;;3.64;100.00;99960.91;1798359;79;21070;-78
2021/05/09 04:16:44;;;;;;;4.85;3.30;;;;;;;3.72;100.00;99963.69;1798330;79;21919;-71
2021/05/09 04:19:12;;;;;;;6.50;3.47;;;;;;;3.79;100.00;99961.03;1798351;79;21136;-73
2021/05/09 04:21:41;;;;;;;6.70;3.25;;;;;;;3.85;100.00;99966.77;1798386;79;21478;-77
2021/05/09 04:24:10;;;;;;;7.40;3.40;;;;;;;3.92;100.00;99973.34;1798289;79;21069;-78
2021/05/09 04:26:37;;;;;;;4.90;2.70;;;;;;;3.98;100.00;99969.58;1798339;79;21044;-78
2021/05/09 04:29:05;;;;;;;4.33;2.92;;;;;;;4.06;99.77;99974.48;1798339;79;21052;-77
2021/05/09 04:31:33;;;;;;;3.77;2.92;;;;;;;4.13;98.53;99981.05;1798393;79;21044;-72
2021/05/09 04:34:01;;;;;;;5.42;3.02;;;;;;;4.18;97.65;99990.05;1769600;78;21248;-72
2021/05/09 04:36:29;;;;;;;4.03;2.90;;;;;;;4.37;99.02;100001.84;1829248;77;21151;-70
2021/05/09 04:38:58;;;;;;;3.70;2.70;;;;;;;4.37;99.02;100001.84;1791782;80;21079;-70
2021/05/09 04:41:26;;;;;;;4.85;2.72;;;;;;;4.48;99.52;99998.91;1792808;78;21117;-70
2021/05/09 04:43:56;;;;;;;6.97;3.33;;;;;;;4.58;98.60;100003.58;1792989;80;21045;-70
2021/05/09 04:46:25;;;;;;;6.60;2.87;;;;;;;4.67;98.68;100003.87;1792899;80;21199;-69
2021/05/09 04:48:53;;;;;;;7.08;3.12;;;;;;;4.75;98.87;100006.08;1797502;79;21109;-70
2021/05/09 04:51:21;;;;;;;4.17;2.90;;;;;;;4.83;97.11;100006.92;1815007;78;20991;-69
2021/05/09 04:53:48;;;;;;;5.00;3.25;;;;;;;4.87;95.71;100012.92;1816373;78;21053;-69
2021/05/09 04:56:19;;;;;;;5.15;2.80;;;;;;;4.94;96.73;100009.95;1830975;78;21068;-73
2021/05/09 04:58:46;;;;;;;3.92;2.50;;;;;;;5.02;97.34;100017.60;1831008;78;21273;-72
2021/05/09 05:01:14;;;;;;;5.20;2.95;;;;;;;5.23;97.34;100021.98;1845519;77;20931;-70
2021/05/09 05:03:44;;;;;;;5.72;3.22;;;;;;;5.23;97.34;100021.98;1845659;77;20895;-72
2021/05/09 05:06:12;;;;;;;5.85;3.17;;;;;;;5.38;93.68;100029.91;1811983;79;21108;-71
2021/05/09 05:08:41;;;;;;;5.83;3.27;;;;;;;5.40;93.26;100023.11;1809762;78;21132;-72
2021/05/09 05:11:09;;;;;;;4.28;2.70;;;;;;;5.48;92.41;100028.02;1789812;79;23644;-74
2021/05/09 05:13:37;;;;;;;5.30;2.75;;;;;;;5.48;92.41;100028.02;1790773;79;21109;-71
2021/05/09 05:16:07;;;;;;;4.83;3.10;;;;;;;5.55;94.50;100023.13;1793777;79;20978;-68
2021/05/09 05:18:36;;;;;;;3.95;2.90;;;;;;;5.66;94.43;100025.31;1782797;79;21160;-68
2021/05/09 05:21:05;;;;;;;4.87;2.95;;;;;;;5.76;94.88;100029.41;1796605;78;21160;-68
2021/05/09 05:23:35;;;;;;;5.10;3.22;;;;;;;5.85;92.12;100029.11;1794114;78;21196;-68
2021/05/09 05:26:04;;;;;;;3.42;2.72;;;;;;;5.94;92.95;100032.95;1790326;79;21089;-69
2021/05/09 05:28:32;;;;;;;3.20;2.55;;;;;;;6.04;93.07;100041.67;1798710;78;21141;-69
2021/05/09 05:31:00;;;;;;;4.70;3.00;;;;;;;6.14;91.16;100039.48;1798578;78;21105;-72
2021/05/09 05:33:31;;;;;;;7.08;2.77;;;;;;;6.24;92.61;100035.38;1793603;78;21133;-71
2021/05/09 05:36:00;;;;;;;4.35;2.85;;;;;;;6.36;92.51;100039.97;1791170;80;21380;-72
2021/05/09 05:38:28;;;;;;;6.42;3.02;;;;;;;6.46;90.64;100046.77;1793658;78;21118;-70
2021/05/09 05:40:57;;;;;;;3.83;2.60;;;;;;;6.54;90.62;100042.66;1789346;80;21213;-73
2021/05/09 05:43:27;;;;;;;4.05;2.72;;;;;;;6.64;89.96;100049.45;1770835;80;21607;-72
2021/05/09 05:45:56;;;;;;;3.87;2.50;;;;;;;6.76;92.25;100047.78;1798243;78;21189;-76
2021/05/09 05:48:24;;;;;;;3.58;2.45;;;;;;;6.89;88.67;100051.28;1787938;79;21413;-71
2021/05/09 05:50:54;;;;;;;6.05;3.08;;;;;;;6.99;91.61;100053.13;1790351;80;21121;-76
2021/05/09 05:53:25;;;;;;;5.40;2.47;;;;;;;7.10;88.75;100044.61;1787124;79;21525;-74
2021/05/09 05:55:54;;;;;;;4.58;2.67;;;;;;;7.21;86.61;100057.66;1790488;80;21121;-72
2021/05/09 05:58:22;;;;;;;8.53;2.37;;;;;;;7.29;87.30;100060.63;1783070;79;21101;-77
2021/05/09 06:00:51;;;;;;;7.50;2.80;;;;;;;7.37;89.75;100055.67;1766882;79;21329;-71
2021/05/09 06:03:20;;;;;;;3.35;2.02;;;;;;;7.46;86.89;100058.08;1795149;79;21152;-69
2021/05/09 06:05:48;;;;;;;4.05;2.60;;;;;;;7.50;83.95;100057.23;1792278;78;21105;-75
2021/05/09 06:08:17;;;;;;;4.30;2.70;;;;;;;7.57;86.01;100063.71;1780026;79;21132;-74
2021/05/09 06:10:45;;;;;;;3.85;2.40;;;;;;;7.61;85.59;100066.14;1797340;79;21132;-73
2021/05/09 06:13:13;;;;;;;4.58;2.77;;;;;;;7.70;86.32;100059.53;1791083;78;21210;-71
2021/05/09 06:15:41;;;;;;;4.65;2.45;;;;;;;7.82;87.89;100058.07;1786210;79;21617;-71
2021/05/09 06:18:09;;;;;;;6.33;2.52;;;;;;;7.98;85.96;100059.32;1797166;78;21167;-70
2021/05/09 06:20:37;;;;;;;4.35;2.60;;;;;;;8.09;84.17;100054.00;1787864;80;21145;-71
2021/05/09 06:23:06;;;;;;;4.28;2.45;;;;;;;8.19;86.99;100062.12;1783551;80;21063;-73
2021/05/09 06:25:34;;;;;;;4.10;2.70;;;;;;;8.28;81.94;100075.44;1783478;80;21988;-72
2021/05/09 06:28:02;;;;;;;3.25;2.40;;;;;;;8.37;85.28;100073.75;1790596;79;21898;-78
2021/05/09 06:30:30;;;;;;;4.08;2.50;;;;;;;8.51;87.34;100077.98;1791106;79;21127;-76
2021/05/09 06:32:59;;;;;;;4.12;2.10;;;;;;;8.67;82.46;100079.98;1764141;81;21045;-75
2021/05/09 06:35:28;;;;;;;4.17;2.40;;;;;;;8.70;82.25;100079.41;1779374;79;21491;-74
2021/05/09 06:37:56;;;;;;;5.53;2.42;;;;;;;8.72;80.93;100079.38;1794553;80;21323;-74
2021/05/09 06:40:24;;;;;;;4.97;2.02;;;;;;;8.81;79.20;100079.56;1794676;80;21073;-72
2021/05/09 06:43:00;;;;;;;2.83;2.35;;;;;;;8.88;79.76;100075.37;1794735;80;21612;-73
2021/05/09 06:45:30;;;;;;;3.87;2.47;;;;;;;8.92;79.39;100089.30;1785957;78;21068;-72
2021/05/09 06:47:59;;;;;;;2.70;2.20;;;;;;;8.98;82.51;100084.58;1783509;80;21576;-72
2021/05/09 06:50:27;;;;;;;3.33;2.55;;;;;;;9.06;83.66;100083.94;1783525;80;21362;-80
2021/05/09 06:52:56;;;;;;;3.08;2.05;;;;;;;9.17;81.52;100088.17;1792981;79;21188;-77
2021/05/09 06:55:24;;;;;;;3.55;2.20;;;;;;;9.30;77.76;100085.25;1792725;79;21636;-74
2021/05/09 06:57:51;;;;;;;3.85;2.33;;;;;;;9.36;76.00;100084.07;1796278;79;21116;-74
2021/05/09 07:00:20;;;;;;;3.52;2.37;;;;;;;9.43;81.46;100079.05;1815722;79;21140;-78
2021/05/09 07:02:49;;;;;;;5.33;2.27;;;;;;;9.56;81.80;100081.87;1805933;79;22534;-74
2021/05/09 07:05:17;;;;;;;5.47;2.50;;;;;;;9.70;76.61;100078.39;1791117;79;21117;-74
2021/05/09 07:08:14;;;;;;;4.65;2.25;;;;;;;9.80;76.28;100080.98;1801784;78;21137;-73
2021/05/09 07:10:43;;;;;;;3.33;2.22;;;;;;;9.86;76.21;100076.46;1678516;85;21189;-72
2021/05/09 07:13:10;;;;;;;2.70;1.92;;;;;;;10.02;76.65;100086.64;1690742;84;21507;-73
2021/05/09 07:15:42;;;;;;;3.33;2.52;;;;;;;10.15;73.94;100087.80;1648948;87;21027;-84
2021/05/09 07:18:12;;;;;;;5.95;2.22;;;;;;;10.33;77.26;100088.91;1679093;85;21171;-82
2021/05/09 07:20:42;;;;;;;3.10;2.30;;;;;;;10.52;72.58;100082.78;1699597;82;21599;-74
2021/05/09 07:23:11;;;;;;;6.05;2.27;;;;;;;10.67;75.90;100081.69;1736646;82;21415;-74
2021/05/09 07:25:40;;;;;;;2.33;1.70;;;;;;;10.74;70.98;100088.97;1736740;82;21591;-79
2021/05/09 07:28:10;;;;;;;6.22;2.77;;;;;;;10.79;71.68;100086.12;1736575;82;21742;-77
2021/05/09 07:30:39;;;;;;;2.60;1.90;;;;;;;10.76;70.54;100086.73;1736733;82;20990;-76
2021/05/09 07:33:08;;;;;;;4.00;2.20;;;;;;;10.74;64.66;100081.55;1736573;82;20997;-71
2021/05/09 07:35:36;;;;;;;3.47;1.98;;;;;;;10.75;69.13;100092.78;1700972;82;22250;-75
2021/05/09 07:38:04;;;;;;;4.25;2.10;;;;;;;10.84;71.70;100087.41;1706970;84;21178;-76
2021/05/09 07:40:33;;;;;;;4.97;2.27;;;;;;;10.93;70.83;100080.09;1706745;84;21368;-85
2021/05/09 07:43:02;;;;;;;2.62;2.08;;;;;;;11.06;66.66;100075.68;1706371;83;21161;-74
2021/05/09 07:45:30;;;;;;;1.92;1.72;;;;;;;11.17;68.22;100076.55;1707253;84;21083;-75
2021/05/09 07:47:58;;;;;;;2.70;2.10;;;;;;;11.25;67.05;100086.00;1707081;84;21640;-79
2021/05/09 07:50:26;;;;;;;6.55;2.87;;;;;;;11.43;72.36;100089.19;1707367;84;21208;-85
2021/05/09 07:52:59;;;;;;;5.40;2.22;;;;;;;11.67;68.13;100087.53;1707233;84;21200;-79
2021/05/09 07:55:24;;;;;;;2.15;1.45;;;;;;;11.84;66.35;100083.59;1707032;83;21122;-70
2021/05/09 07:57:51;;;;;;;2.62;1.75;;;;;;;11.95;65.17;100088.29;1731043;82;21152;-70
2021/05/09 08:00:20;;;;;;;2.67;1.70;;;;;;;12.08;62.05;100089.36;1736581;82;21659;-71
2021/05/09 08:02:49;;;;;;;2.92;1.95;;;;;;;12.28;60.35;100075.06;1724171;82;21560;-70
2021/05/09 08:05:19;;;;;;;2.90;1.75;;;;;;;12.54;58.19;100078.80;1736766;82;21242;-70
2021/05/09 08:07:55;;;;;;;2.25;1.75;;;;;;;12.70;60.43;100077.02;1736542;82;21180;-72
2021/05/09 08:10:25;;;;;;;1.75;1.62;;;;;;;12.84;62.07;100078.51;1726135;81;21061;-70
2021/05/09 08:12:53;;;;;;;1.37;1.22;;;;;;;12.97;55.49;100074.02;1723619;83;20954;-71
2021/05/09 08:15:23;;;;;;;5.47;1.92;;;;;;;13.17;58.59;100074.85;1711318;83;21101;-71
2021/05/09 08:17:53;;;;;;;2.72;1.60;;;;;;;13.49;59.25;100077.73;1723548;81;21350;-72
2021/05/09 08:20:23;;;;;;;3.72;1.70;;;;;;;13.86;56.47;100085.95;1723743;83;21145;-71
2021/05/09 08:22:51;;;;;;;2.60;1.77;;;;;;;14.11;49.58;100069.70;1723607;83;20987;-71
2021/05/09 08:25:21;;;;;;;6.62;2.83;;;;;;;14.02;51.79;100070.28;1723664;83;21022;-71
2021/05/09 08:27:49;;;;;;;1.92;1.32;;;;;;;13.84;50.85;100073.06;1723638;83;21552;-70
2021/05/09 08:30:20;;;;;;;7.17;3.40;;;;;;;13.64;48.44;100068.19;1711088;83;21433;-75
2021/05/09 08:32:48;;;;;;;6.12;2.72;;;;;;;13.39;54.43;100071.72;1723961;83;21600;-76
2021/05/09 08:35:17;;;;;;;2.85;1.55;;;;;;;13.10;51.47;100071.72;1682021;82;21125;-72
2021/05/09 08:37:45;;;;;;;6.33;2.40;;;;;;;13.05;51.85;100080.13;1666682;86;21631;-74
2021/05/09 08:40:16;;;;;;;1.87;1.62;;;;;;;13.37;53.43;100079.50;1676299;84;21157;-79
2021/05/09 08:42:48;;;;;;;2.87;1.47;;;;;;;13.77;48.31;100074.69;1693720;83;21471;-76
2021/05/09 08:45:17;;;;;;;2.08;1.07;;;;;;;13.94;50.52;100080.75;1694725;84;21598;-72
2021/05/09 08:47:45;;;;;;;5.50;1.70;;;;;;;13.97;48.08;100082.86;1694117;84;21249;-75
2021/05/09 08:50:16;;;;;;;4.65;2.50;;;;;;;13.73;47.02;100067.63;1694953;84;21079;-71
2021/05/09 08:52:46;;;;;;;2.55;1.65;;;;;;;13.41;49.60;100073.58;1694570;84;21150;-75
2021/05/09 08:55:22;;;;;;;4.62;1.70;;;;;;;13.15;49.95;100085.36;1694888;84;21395;-76
2021/05/09 08:57:50;;;;;;;2.67;1.60;;;;;;;12.82;49.70;100075.83;1694807;84;21177;-77
2021/05/09 09:00:19;;;;;;;5.80;1.80;;;;;;;12.74;52.25;100071.90;1694488;84;21063;-70
2021/05/09 09:02:48;;;;;;;2.40;1.70;;;;;;;12.77;52.76;100084.23;1693933;84;21040;-70
2021/05/09 09:05:16;;;;;;;2.55;1.60;;;;;;;12.87;52.91;100085.33;1694586;84;21203;-71
2021/05/09 09:07:51;;;;;;;6.42;2.65;;;;;;;12.90;53.28;100091.58;1693902;84;22392;-75
2021/05/09 09:10:51;;;;;;;4.92;2.27;;;;;;;13.21;52.30;100084.67;1715720;82;21205;-76
2021/05/09 09:13:28;;;;;;;2.27;1.35;;;;;;;13.82;50.54;100079.48;1725472;82;21184;-73
2021/05/09 09:16:03;;;;;;;2.52;1.40;;;;;;;14.35;48.67;100075.52;1729005;83;21169;-70
2021/05/09 09:18:42;;;;;;;1.40;1.30;;;;;;;14.20;43.96;100080.98;1729209;81;21161;-72
2021/05/09 09:21:29;;;;;;;3.72;1.82;;;;;;;13.98;46.80;100077.58;1678831;85;21525;-73
2021/05/09 09:24:07;;;;;;;2.08;1.20;;;;;;;14.11;48.08;100072.46;1700689;84;21088;-68
2021/05/09 09:26:52;;;;;;;3.17;1.70;;;;;;;14.11;47.44;100087.08;1709067;84;21195;-71
2021/05/09 09:29:29;;;;;;;5.87;2.00;;;;;;;14.14;45.42;100081.47;1709237;84;20914;-73
2021/05/09 09:32:02;;;;;;;3.92;1.85;;;;;;;14.27;47.79;100082.44;1709053;84;21028;-71
2021/05/09 09:34:44;;;;;;;2.62;1.67;;;;;;;14.57;47.47;100076.45;1709231;84;21217;-74
2021/05/09 09:37:13;;;;;;;3.77;1.47;;;;;;;15.16;48.76;100084.24;1709597;84;21108;-72
2021/05/09 09:39:58;;;;;;;2.05;1.40;;;;;;;15.57;44.00;100079.41;1728848;82;21193;-72
2021/05/09 09:42:47;;;;;;;3.20;1.55;;;;;;;15.35;43.84;100087.97;1728829;83;21521;-72
2021/05/09 09:45:21;;;;;;;2.10;1.35;;;;;;;14.82;42.51;100092.14;1729708;82;21197;-82
2021/05/09 09:48:00;;;;;;;3.02;1.70;;;;;;;14.61;46.03;100083.75;1729608;83;21147;-80
2021/05/09 09:50:43;;;;;;;3.65;1.60;;;;;;;14.85;45.87;100085.38;1730028;82;21038;-79
2021/05/09 09:53:39;;;;;;;1.98;1.25;;;;;;;15.21;42.73;100088.20;1729263;83;21177;-75
2021/05/09 09:56:11;;;;;;;1.75;1.12;;;;;;;15.50;41.51;100086.81;1729129;83;21169;-78
2021/05/09 09:59:05;;;;;;;2.50;1.20;;;;;;;15.60;41.05;100082.84;1729317;82;21571;-76
2021/05/09 10:01:35;;;;;;;3.65;1.40;;;;;;;15.61;41.84;100087.23;1728225;83;21205;-78
2021/05/09 10:04:07;;;;;;;3.12;1.30;;;;;;;15.42;40.82;100089.06;1723757;83;21103;-82
2021/05/09 10:09:15;;;;;;;4.22;1.12;;;;;;;15.05;42.86;100098.20;1871676;76;22740;-75
2021/05/09 10:11:45;;;;;;;2.95;1.20;;;;;;;15.07;42.22;100087.05;1828449;77;21010;-71
2021/05/09 10:14:13;;;;;;;2.15;1.32;;;;;;;15.40;44.54;100091.36;1822965;77;22195;-74
2021/05/09 10:16:41;;;;;;;3.42;1.32;;;;;;;15.67;41.69;100081.74;1826899;77;21002;-75
2021/05/09 10:19:13;;;;;;;2.30;1.17;;;;;;;15.89;41.80;100098.59;1792528;77;21576;-77
2021/05/09 10:21:42;;;;;;;1.83;1.00;;;;;;;16.19;40.58;100097.91;1787875;80;20982;-79
2021/05/09 10:24:15;;;;;;;1.30;0.95;;;;;;;16.39;38.63;100094.30;1787525;80;20986;-81
2021/05/09 10:26:54;;;;;;;3.55;1.50;;;;;;;16.50;37.30;100084.41;1787443;79;21371;-75
2021/05/09 10:29:45;;;;;;;4.58;1.98;;;;;;;16.53;38.75;100089.84;1777167;80;21080;-74
2021/05/09 10:32:24;;;;;;;1.62;1.35;;;;;;;16.46;37.21;100097.33;1796385;79;21497;-80
2021/05/09 10:35:00;;;;;;;2.87;1.62;;;;;;;16.31;39.62;100092.42;1802846;79;21061;-70
2021/05/09 10:37:52;;;;;;;2.00;1.20;;;;;;;16.39;38.57;100086.56;1785335;79;21587;-72
2021/05/09 10:40:39;;;;;;;1.73;1.00;;;;;;;16.62;40.52;100095.30;1782062;79;22137;-73
2021/05/09 10:43:15;;;;;;;2.72;1.70;;;;;;;16.97;39.23;100097.91;1768263;79;21005;-77
2021/05/09 10:45:48;;;;;;;2.80;1.25;;;;;;;17.30;37.41;100088.68;1763580;81;20926;-75
2021/05/09 10:48:29;;;;;;;4.12;1.22;;;;;;;17.28;34.95;100089.61;1772746;79;21054;-77
2021/05/09 10:51:07;;;;;;;3.52;0.90;;;;;;;17.18;37.17;100088.10;1792455;79;21010;-70
2021/05/09 10:53:42;;;;;;;2.30;1.50;;;;;;;17.31;37.30;100091.11;1798668;79;21252;-72
2021/05/09 10:56:21;;;;;;;1.50;1.25;;;;;;;17.42;37.16;100094.20;1813274;78;21133;-74
2021/05/09 10:58:57;;;;;;;3.05;1.32;;;;;;;17.19;34.62;100092.50;1813835;79;21597;-72
2021/05/09 11:01:36;;;;;;;6.58;1.50;;;;;;;16.64;36.11;100088.83;1814040;79;21192;-73
2021/05/09 11:04:11;;;;;;;4.67;1.77;;;;;;;16.27;36.09;100095.64;1813954;79;21184;-73
2021/05/09 11:06:48;;;;;;;3.27;1.05;;;;;;;16.26;37.72;100093.20;1813960;79;21404;-70
2021/05/09 11:09:23;;;;;;;3.90;1.00;;;;;;;16.36;35.73;100081.13;1814383;79;21176;-71
2021/05/09 11:11:55;;;;;;;4.42;1.27;;;;;;;16.50;37.53;100080.25;1796837;79;21102;-72
2021/05/09 11:14:23;;;;;;;2.33;1.05;;;;;;;16.72;38.26;100076.30;1786923;80;21118;-71
2021/05/09 11:17:02;;;;;;;1.60;1.10;;;;;;;16.67;37.90;100074.31;1799761;79;21132;-71
2021/05/09 11:19:48;;;;;;;2.83;1.22;;;;;;;16.65;37.64;100077.44;1784745;80;22699;-74
2021/05/09 11:22:19;;;;;;;1.55;1.30;;;;;;;16.74;34.07;100087.04;1784484;80;21162;-73
2021/05/09 11:24:55;;;;;;;1.80;0.95;;;;;;;16.91;39.38;100077.68;1784194;79;21122;-70
2021/05/09 11:27:22;;;;;;;2.55;1.40;;;;;;;17.26;34.67;100080.23;1802086;79;21128;-74
2021/05/09 11:29:53;;;;;;;2.70;1.30;;;;;;;17.33;36.49;100082.44;1817467;79;21090;-76
2021/05/09 11:32:22;;;;;;;2.45;1.37;;;;;;;17.02;33.62;100069.14;1817369;78;21596;-75
2021/05/09 11:34:55;;;;;;;1.60;1.30;;;;;;;16.72;34.80;100087.38;1817481;78;20994;-76
2021/05/09 11:37:36;;;;;;;2.85;1.45;;;;;;;16.77;35.75;100073.84;1817503;79;21041;-76
2021/05/09 11:40:07;;;;;;;3.10;0.75;;;;;;;17.11;35.77;100063.71;1817387;79;21128;-76
2021/05/09 11:42:35;;;;;;;4.10;1.20;;;;;;;17.04;36.71;100073.19;1817611;79;21009;-75
2021/05/09 11:45:05;;;;;;;4.42;1.60;;;;;;;16.79;35.13;100077.08;1788559;79;21141;-77
2021/05/09 11:47:34;;;;;;;2.67;1.10;;;;;;;16.51;39.00;100086.60;1798059;79;21037;-77